Time;durP1;ratioP1;P1;durP2;ratioP2;P2;SDS_P1;SDS_P2;PMS_P1;PMS_P2;Temp;Humidity;BMP_temperature;BMP_pressure;BME280_temperature;BME280_humidity;BME280_pressure;Samples;Min_cycle;Max_cycle;Signal;HPM_P1;HPM_P2
2021/12/23 00:01:59;;;;;;;;;;;;;;;8.68;27.65;100653.00;4469541;32;34176;-78
2021/12/23 00:04:27;;;;;;;;;;;;;;;8.52;28.13;100650.28;4471297;32;33864;-74
2021/12/23 00:06:54;;;;;;;;;;;;;;;8.68;27.44;100649.47;4468898;32;34449;-75
2021/12/23 00:09:26;;;;;;;;;;;;;;;8.74;27.25;100635.81;4471485;32;33821;-75
2021/12/23 00:11:54;;;;;;;;;;;;;;;8.72;27.57;100635.88;4469869;32;34022;-75
2021/12/23 00:14:21;;;;;;;;;;;;;;;8.71;27.40;100634.16;4468297;32;34217;-75
2021/12/23 00:17:06;;;;;;;;;;;;;;;8.65;27.43;100629.16;4469886;32;33510;-73
2021/12/23 00:19:46;;;;;;;;;;;;;;;8.45;28.38;100635.53;4471710;32;33509;-73
2021/12/23 00:25:00;;;;;;;;;;;;;;;8.04;29.21;100619.81;4477343;32;34378;-72
2021/12/23 00:27:27;;;;;;;;;;;;;;;7.93;29.27;100624.81;4472228;32;35255;-74
2021/12/23 00:29:54;;;;;;;;;;;;;;;8.20;28.72;100619.03;4470366;32;33216;-74
2021/12/23 00:32:21;;;;;;;;;;;;;;;8.14;28.78;100617.53;4467280;32;34083;-75
2021/12/23 00:34:49;;;;;;;;;;;;;;;8.05;29.32;100621.53;4465615;32;34515;-74
2021/12/23 00:37:17;;;;;;;;;;;;;;;8.17;28.52;100625.38;4464845;32;35327;-75
2021/12/23 00:39:45;;;;;;;;;;;;;;;8.22;28.36;100618.03;4478356;31;34533;-75
2021/12/23 00:42:12;;;;;;;;;;;;;;;7.62;30.11;100620.13;4473284;32;34071;-74
2021/12/23 00:44:45;;;;;;;;;;;;;;;8.28;27.97;100611.50;4466108;32;35160;-75
2021/12/23 00:47:12;;;;;;;;;;;;;;;8.26;27.97;100610.72;4468462;32;33843;-73
2021/12/23 00:49:40;;;;;;;;;;;;;;;8.40;28.24;100606.41;4481691;31;32210;-74
2021/12/23 00:52:08;;;;;;;;;;;;;;;8.25;27.97;100606.31;4478543;32;35078;-73
2021/12/23 00:54:36;;;;;;;;;;;;;;;8.31;27.52;100611.34;4467262;32;35360;-72
2021/12/23 00:57:03;;;;;;;;;;;;;;;8.36;27.46;100610.16;4467155;32;34973;-74
2021/12/23 00:59:30;;;;;;;;;;;;;;;8.31;27.79;100606.84;4467510;32;32707;-72
2021/12/23 01:01:58;;;;;;;;;;;;;;;8.47;27.60;100609.63;4466936;32;34709;-75
2021/12/23 01:04:27;;;;;;;;;;;;;;;8.37;28.15;100606.53;4477645;32;34400;-77
2021/12/23 01:06:54;;;;;;;;;;;;;;;8.46;27.28;100599.91;4474243;32;35006;-78
2021/12/23 01:09:21;;;;;;;;;;;;;;;8.44;27.28;100599.09;4469613;32;33435;-77
2021/12/23 01:11:50;;;;;;;;;;;;;;;8.52;26.84;100601.41;4469698;31;35225;-76
2021/12/23 01:16:50;;;;;;;;;;;;;;;8.36;27.48;100594.16;4466048;32;35169;-76
2021/12/23 01:19:17;;;;;;;;;;;;;;;8.42;27.17;100593.00;4467574;32;33425;-75
2021/12/23 01:21:45;;;;;;;;;;;;;;;8.35;27.43;100586.25;4471565;31;34986;-77
2021/12/23 01:24:12;;;;;;;;;;;;;;;8.46;26.97;100583.03;4478683;32;34293;-75
2021/12/23 01:26:39;;;;;;;;;;;;;;;8.37;27.34;100584.34;4472547;32;34056;-74
2021/12/23 01:29:07;;;;;;;;;;;;;;;8.07;28.24;100581.47;4468714;32;33660;-73
2021/12/23 01:31:37;;;;;;;;;;;;;;;8.31;27.40;100584.66;4471465;32;33499;-75
2021/12/23 01:34:05;;;;;;;;;;;;;;;8.32;27.11;100586.41;4466365;32;34357;-73
2021/12/23 01:36:32;;;;;;;;;;;;;;;8.20;27.52;100579.03;4464576;32;35013;-75
2021/12/23 01:38:59;;;;;;;;;;;;;;;8.18;27.75;100579.09;4467104;31;32903;-76
2021/12/23 01:41:28;;;;;;;;;;;;;;;8.09;28.24;100588.44;4469535;32;34265;-74
2021/12/23 01:43:56;;;;;;;;;;;;;;;7.31;29.79;100578.97;4467895;32;34069;-75
2021/12/23 01:46:23;;;;;;;;;;;;;;;8.06;28.00;100577.94;4472826;32;35080;-74
2021/12/23 01:48:51;;;;;;;;;;;;;;;7.90;28.77;100569.84;4471729;32;34645;-74
2021/12/23 01:51:19;;;;;;;;;;;;;;;7.68;29.34;100566.53;4478777;32;33290;-73
2021/12/23 01:53:46;;;;;;;;;;;;;;;7.46;30.05;100570.25;4471357;32;34304;-72
2021/12/23 01:56:14;;;;;;;;;;;;;;;7.64;29.57;100559.63;4469987;31;33144;-75
2021/12/23 01:58:42;;;;;;;;;;;;;;;7.49;29.49;100566.59;4474827;32;33210;-73
2021/12/23 02:01:10;;;;;;;;;;;;;;;7.63;29.93;100558.75;4475882;31;34925;-73
2021/12/23 02:03:38;;;;;;;;;;;;;;;7.65;29.95;100556.91;4469961;32;34455;-75
2021/12/23 02:06:06;;;;;;;;;;;;;;;7.69;29.13;100553.13;4475771;32;34026;-76
2021/12/23 02:08:34;;;;;;;;;;;;;;;7.64;29.63;100547.19;4472154;32;33456;-75
2021/12/23 02:11:03;;;;;;;;;;;;;;;7.49;30.83;100555.06;4464676;32;34989;-76
2021/12/23 02:13:31;;;;;;;;;;;;;;;7.40;31.33;100549.25;4470779;32;33573;-79
2021/12/23 02:15:58;;;;;;;;;;;;;;;7.63;30.56;100545.44;4465054;32;35048;-72
2021/12/23 02:18:26;;;;;;;;;;;;;;;7.86;29.65;100546.94;4467990;31;33280;-71
2021/12/23 02:20:54;;;;;;;;;;;;;;;7.58;30.90;100541.31;4471142;32;33178;-73
2021/12/23 02:23:21;;;;;;;;;;;;;;;7.69;31.18;100545.13;4468554;32;34283;-71
2021/12/23 02:25:49;;;;;;;;;;;;;;;7.67;30.77;100536.38;4465097;32;34090;-72
2021/12/23 02:28:17;;;;;;;;;;;;;;;7.61;31.60;100530.50;4464907;32;33351;-75
2021/12/23 02:30:44;;;;;;;;;;;;;;;7.24;32.04;100535.81;4463047;32;32326;-74
2021/12/23 02:33:12;;;;;;;;;;;;;;;5.98;33.80;100534.53;4467130;32;35189;-74
2021/12/23 02:35:39;;;;;;;;;;;;;;;6.05;34.53;100531.53;4474465;32;35142;-75
2021/12/23 02:38:06;;;;;;;;;;;;;;;5.90;34.70;100529.50;4466853;32;33797;-72
2021/12/23 02:40:35;;;;;;;;;;;;;;;6.58;34.00;100523.88;4469827;32;34695;-72
2021/12/23 02:43:13;;;;;;;;;;;;;;;6.68;33.68;100515.44;4467453;32;34115;-71
2021/12/23 02:45:42;;;;;;;;;;;;;;;6.88;33.40;100513.62;4465713;32;33820;-73
2021/12/23 02:48:11;;;;;;;;;;;;;;;6.11;34.91;100522.44;4470843;32;31743;-72
2021/12/23 02:50:39;;;;;;;;;;;;;;;6.36;34.17;100511.56;4467866;31;33794;-72
2021/12/23 02:53:06;;;;;;;;;;;;;;;6.57;34.00;100508.84;4471154;32;34416;-73
2021/12/23 02:55:34;;;;;;;;;;;;;;;6.22;34.18;100501.53;4470679;31;33728;-72
2021/12/23 02:58:01;;;;;;;;;;;;;;;4.50;38.37;100506.88;4473047;32;33422;-74
2021/12/23 03:00:29;;;;;;;;;;;;;;;4.76;37.60;100506.75;4465653;32;35042;-74
2021/12/23 03:02:57;;;;;;;;;;;;;;;6.12;35.53;100497.56;4465762;32;35299;-74
2021/12/23 03:05:25;;;;;;;;;;;;;;;5.41;36.63;100498.84;4471263;31;34870;-75
2021/12/23 03:07:52;;;;;;;;;;;;;;;5.56;36.54;100501.72;4475976;32;33157;-75
2021/12/23 03:10:23;;;;;;;;;;;;;;;5.77;35.97;100496.41;4472834;32;34191;-76
2021/12/23 03:12:50;;;;;;;;;;;;;;;6.06;34.99;100505.81;4475662;32;35329;-74
2021/12/23 03:15:17;;;;;;;;;;;;;;;5.83;35.98;100485.53;4470853;32;35757;-73
2021/12/23 03:17:45;;;;;;;;;;;;;;;6.35;34.96;100493.00;4469632;32;32102;-73
2021/12/23 03:20:12;;;;;;;;;;;;;;;6.30;34.94;100493.25;4455570;32;34758;-74
2021/12/23 03:22:40;;;;;;;;;;;;;;;5.53;36.15;100501.00;4469683;31;33234;-75
2021/12/23 03:25:07;;;;;;;;;;;;;;;6.36;34.97;100489.44;4472395;32;32526;-74
2021/12/23 03:27:34;;;;;;;;;;;;;;;6.15;35.36;100483.28;4469332;31;33441;-73
2021/12/23 03:30:04;;;;;;;;;;;;;;;6.27;34.69;100486.25;4468540;32;34022;-73
2021/12/23 03:32:31;;;;;;;;;;;;;;;7.15;33.03;100480.34;4470757;31;37852;-73
2021/12/23 03:34:59;;;;;;;;;;;;;;;7.23;33.11;100482.66;4473893;32;34756;-73
2021/12/23 03:37:26;;;;;;;;;;;;;;;5.77;35.61;100481.34;4464466;32;36148;-74
2021/12/23 03:39:54;;;;;;;;;;;;;;;7.03;33.38;100475.62;4466953;32;35055;-78
2021/12/23 03:42:21;;;;;;;;;;;;;;;6.73;33.93;100478.81;4465768;32;34334;-73
2021/12/23 03:44:48;;;;;;;;;;;;;;;7.51;32.55;100473.25;4469687;31;31541;-72
2021/12/23 03:47:15;;;;;;;;;;;;;;;7.42;32.43;100474.59;4470946;32;31724;-72
2021/12/23 03:49:43;;;;;;;;;;;;;;;7.70;32.46;100466.94;4474180;31;35337;-77
2021/12/23 03:52:10;;;;;;;;;;;;;;;7.86;31.85;100464.31;4470757;32;34370;-73
2021/12/23 03:54:38;;;;;;;;;;;;;;;8.00;31.73;100463.63;4473907;32;34464;-73
2021/12/23 03:57:05;;;;;;;;;;;;;;;7.93;31.92;100464.88;4470674;32;33228;-75
2021/12/23 03:59:33;;;;;;;;;;;;;;;8.03;31.73;100466.12;4473750;32;33283;-72
2021/12/23 04:02:00;;;;;;;;;;;;;;;7.95;31.65;100462.97;4478228;32;34444;-73
2021/12/23 04:04:28;;;;;;;;;;;;;;;8.07;31.76;100462.34;4475841;32;33465;-72
2021/12/23 04:06:55;;;;;;;;;;;;;;;7.98;31.91;100459.31;4469623;32;33457;-72
2021/12/23 04:09:23;;;;;;;;;;;;;;;7.78;32.06;100457.69;4471824;31;34156;-73
2021/12/23 04:11:50;;;;;;;;;;;;;;;8.22;31.23;100450.00;4479039;32;34371;-73
2021/12/23 04:14:18;;;;;;;;;;;;;;;8.03;31.69;100452.78;4472973;32;34312;-74
2021/12/23 04:16:45;;;;;;;;;;;;;;;8.20;31.28;100457.22;4473422;32;33479;-73
2021/12/23 04:19:13;;;;;;;;;;;;;;;7.49;32.40;100448.53;4472111;32;34876;-77
2021/12/23 04:21:40;;;;;;;;;;;;;;;7.92;31.76;100444.47;4474434;32;34266;-74
2021/12/23 04:24:08;;;;;;;;;;;;;;;8.06;31.18;100449.09;4475154;32;34207;-76
2021/12/23 04:26:36;;;;;;;;;;;;;;;7.72;32.43;100456.19;4470543;32;33226;-68
2021/12/23 04:29:04;;;;;;;;;;;;;;;7.72;32.06;100450.00;4470775;32;35160;-73
2021/12/23 04:31:32;;;;;;;;;;;;;;;7.35;32.42;100443.87;4474096;32;32906;-73
2021/12/23 04:34:00;;;;;;;;;;;;;;;7.14;32.96;100441.34;4475049;32;34284;-73
2021/12/23 04:36:29;;;;;;;;;;;;;;;7.56;32.23;100426.81;4474773;32;33370;-72
2021/12/23 04:38:58;;;;;;;;;;;;;;;8.03;31.51;100434.13;4471509;32;34201;-73
2021/12/23 04:41:26;;;;;;;;;;;;;;;7.50;32.49;100440.44;4471563;32;37222;-74
2021/12/23 04:43:54;;;;;;;;;;;;;;;7.62;32.34;100433.63;4471728;32;34924;-72
2021/12/23 04:46:21;;;;;;;;;;;;;;;7.95;31.59;100431.00;4470753;32;34580;-74
2021/12/23 04:48:50;;;;;;;;;;;;;;;8.07;31.34;100429.50;4473198;32;32784;-74
2021/12/23 04:51:17;;;;;;;;;;;;;;;7.40;32.48;100423.22;4472004;32;34265;-73
2021/12/23 04:53:45;;;;;;;;;;;;;;;7.69;32.25;100432.38;4470719;32;34293;-71
2021/12/23 04:56:13;;;;;;;;;;;;;;;7.83;31.85;100432.53;4473207;32;33179;-72
2021/12/23 04:58:40;;;;;;;;;;;;;;;7.73;32.08;100428.59;4473015;32;35126;-72
2021/12/23 05:01:16;;;;;;;;;;;;;;;8.12;31.31;100424.75;4476221;32;34387;-72
2021/12/23 05:03:44;;;;;;;;;;;;;;;8.03;31.98;100433.28;4474327;32;32604;-72
2021/12/23 05:06:11;;;;;;;;;;;;;;;7.86;31.92;100439.47;4470552;32;34374;-73
2021/12/23 05:08:39;;;;;;;;;;;;;;;7.34;32.41;100436.84;4471320;32;34304;-72
2021/12/23 05:11:06;;;;;;;;;;;;;;;7.31;32.71;100429.84;4477416;32;33824;-72
2021/12/23 05:13:34;;;;;;;;;;;;;;;7.67;31.90;100429.78;4474638;32;34261;-73
2021/12/23 05:16:01;;;;;;;;;;;;;;;7.62;32.23;100428.31;4474994;32;32187;-72
2021/12/23 05:18:29;;;;;;;;;;;;;;;7.58;32.06;100424.94;4471817;32;32929;-74
2021/12/23 05:20:56;;;;;;;;;;;;;;;7.53;32.28;100421.62;4476994;32;34429;-73
2021/12/23 05:23:23;;;;;;;;;;;;;;;7.94;31.59;100415.94;4475645;32;34162;-73
2021/12/23 05:25:51;;;;;;;;;;;;;;;7.05;33.33;100414.31;4474904;32;33547;-73
2021/12/23 05:28:18;;;;;;;;;;;;;;;6.57;33.23;100413.97;4474976;32;34162;-72
2021/12/23 05:30:45;;;;;;;;;;;;;;;7.42;32.45;100406.22;4476918;32;34429;-73
2021/12/23 05:33:13;;;;;;;;;;;;;;;7.66;31.80;100414.72;4469421;32;34217;-75
2021/12/23 05:35:40;;;;;;;;;;;;;;;7.72;32.07;100416.22;4479988;32;33347;-75
2021/12/23 05:38:08;;;;;;;;;;;;;;;7.87;31.61;100423.41;4471876;32;33863;-71
2021/12/23 05:40:35;;;;;;;;;;;;;;;7.92;31.78;100428.50;4472417;32;34125;-72
2021/12/23 05:43:03;;;;;;;;;;;;;;;7.92;31.66;100436.50;4476439;32;33777;-75
2021/12/23 05:45:30;;;;;;;;;;;;;;;7.64;32.11;100434.41;4467560;32;34797;-73
2021/12/23 05:47:58;;;;;;;;;;;;;;;7.99;31.63;100434.34;4468077;32;34017;-74
2021/12/23 05:50:25;;;;;;;;;;;;;;;7.51;32.14;100428.84;4476590;32;33054;-74
2021/12/23 05:52:52;;;;;;;;;;;;;;;7.52;32.35;100421.72;4473533;32;34890;-75
2021/12/23 05:55:20;;;;;;;;;;;;;;;7.57;32.35;100425.84;4474383;32;32955;-74
2021/12/23 05:57:48;;;;;;;;;;;;;;;7.75;32.17;100418.72;4469792;32;34307;-75
2021/12/23 06:00:15;;;;;;;;;;;;;;;7.99;31.95;100424.56;4477090;32;34591;-70
2021/12/23 06:02:43;;;;;;;;;;;;;;;7.79;32.41;100416.75;4474079;32;32619;-70
2021/12/23 06:05:11;;;;;;;;;;;;;;;7.63;32.49;100419.34;4478229;32;33217;-71
2021/12/23 06:07:38;;;;;;;;;;;;;;;7.67;32.29;100410.25;4474529;32;34105;-71
2021/12/23 06:10:07;;;;;;;;;;;;;;;7.04;33.03;100410.81;4479198;32;33667;-72
2021/12/23 06:12:34;;;;;;;;;;;;;;;6.79;33.86;100404.97;4473356;32;35220;-73
2021/12/23 06:15:02;;;;;;;;;;;;;;;7.35;33.49;100406.59;4475173;32;32999;-72
2021/12/23 06:17:29;;;;;;;;;;;;;;;7.18;33.78;100410.97;4476326;32;35255;-71
2021/12/23 06:19:56;;;;;;;;;;;;;;;6.91;34.69;100410.56;4468262;32;35234;-72
2021/12/23 06:22:24;;;;;;;;;;;;;;;7.64;33.25;100408.62;4472193;32;32689;-71
2021/12/23 06:24:52;;;;;;;;;;;;;;;7.86;32.76;100413.69;4471271;32;34554;-71
2021/12/23 06:27:19;;;;;;;;;;;;;;;8.05;32.27;100404.72;4474383;32;34176;-71
2021/12/23 06:29:47;;;;;;;;;;;;;;;7.84;32.55;100406.72;4476735;32;34353;-72
2021/12/23 06:32:14;;;;;;;;;;;;;;;7.86;32.67;100402.16;4477305;32;33676;-74
2021/12/23 06:34:41;;;;;;;;;;;;;;;7.43;33.36;100396.41;4471082;32;33503;-74
2021/12/23 06:37:09;;;;;;;;;;;;;;;7.61;33.09;100400.81;4470306;32;34063;-74
2021/12/23 06:39:38;;;;;;;;;;;;;;;7.98;32.59;100400.66;4476425;32;34303;-75
2021/12/23 06:42:06;;;;;;;;;;;;;;;8.02;32.29;100397.72;4478828;32;34168;-75
2021/12/23 06:44:33;;;;;;;;;;;;;;;8.08;32.42;100404.53;4475230;32;34349;-76
2021/12/23 06:47:01;;;;;;;;;;;;;;;7.36;33.29;100406.53;4469110;32;34070;-70
2021/12/23 06:49:31;;;;;;;;;;;;;;;7.57;32.86;100407.22;4465959;32;34397;-70
2021/12/23 06:51:59;;;;;;;;;;;;;;;8.04;32.31;100403.00;4467598;32;34866;-68
2021/12/23 06:54:27;;;;;;;;;;;;;;;7.46;33.43;100398.94;4466604;32;33384;-71
2021/12/23 06:56:54;;;;;;;;;;;;;;;6.78;33.61;100408.56;4467171;32;35115;-73
2021/12/23 06:59:22;;;;;;;;;;;;;;;8.09;32.12;100399.16;4468486;32;34073;-75
2021/12/23 07:01:50;;;;;;;;;;;;;;;8.36;31.62;100409.25;4469561;32;34890;-70
2021/12/23 07:04:21;;;;;;;;;;;;;;;7.17;33.54;100416.37;4475176;32;31956;-71
2021/12/23 07:06:58;;;;;;;;;;;;;;;7.77;32.95;100408.84;4469880;32;33455;-71
2021/12/23 07:09:26;;;;;;;;;;;;;;;7.84;32.72;100410.25;4471583;32;34210;-72
2021/12/23 07:11:53;;;;;;;;;;;;;;;7.84;32.58;100398.72;4472716;32;34385;-71
2021/12/23 07:14:20;;;;;;;;;;;;;;;7.96;32.71;100397.19;4475378;32;34426;-71
2021/12/23 07:16:48;;;;;;;;;;;;;;;7.03;33.68;100401.09;4473940;32;33911;-71
2021/12/23 07:19:15;;;;;;;;;;;;;;;7.08;35.12;100400.88;4474738;32;34254;-79
2021/12/23 07:21:42;;;;;;;;;;;;;;;7.50;34.32;100404.97;4469198;32;35115;-80
2021/12/23 07:24:10;;;;;;;;;;;;;;;6.68;34.20;100406.34;4468685;32;33709;-80
2021/12/23 07:26:37;;;;;;;;;;;;;;;6.88;34.99;100393.88;4459179;32;33620;-77
2021/12/23 07:29:05;;;;;;;;;;;;;;;7.30;35.09;100398.84;4470173;32;33249;-74
2021/12/23 07:31:33;;;;;;;;;;;;;;;7.86;32.99;100392.34;4473966;32;34436;-75
2021/12/23 07:34:00;;;;;;;;;;;;;;;7.21;33.97;100397.50;4467148;32;34359;-76
2021/12/23 07:36:28;;;;;;;;;;;;;;;7.87;33.06;100391.44;4470574;32;33869;-77
2021/12/23 07:38:56;;;;;;;;;;;;;;;7.59;34.48;100399.16;4473983;32;33198;-75
2021/12/23 07:41:23;;;;;;;;;;;;;;;8.15;32.30;100395.25;4468408;32;32870;-75
2021/12/23 07:46:25;;;;;;;;;;;;;;;7.79;33.13;100388.31;4470068;32;35962;-77
2021/12/23 07:48:53;;;;;;;;;;;;;;;7.43;34.24;100385.75;4470675;32;34647;-75
2021/12/23 07:51:20;;;;;;;;;;;;;;;7.21;34.18;100391.31;4469832;32;34133;-75
2021/12/23 07:53:48;;;;;;;;;;;;;;;6.48;35.99;100382.47;4476997;32;33386;-76
2021/12/23 07:56:15;;;;;;;;;;;;;;;6.94;35.80;100374.94;4471421;32;33932;-78
2021/12/23 07:58:43;;;;;;;;;;;;;;;7.14;35.10;100376.59;4474326;32;32827;-77
2021/12/23 08:01:10;;;;;;;;;;;;;;;7.11;34.76;100374.94;4472020;32;34045;-75
2021/12/23 08:03:38;;;;;;;;;;;;;;;7.53;34.17;100373.69;4473028;32;33375;-77
2021/12/23 08:06:06;;;;;;;;;;;;;;;7.84;33.45;100364.09;4473677;32;35673;-77
2021/12/23 08:08:33;;;;;;;;;;;;;;;7.69;33.22;100363.94;4469513;32;34189;-77
2021/12/23 08:11:01;;;;;;;;;;;;;;;7.64;33.78;100357.12;4476755;32;34799;-76
2021/12/23 08:13:29;;;;;;;;;;;;;;;7.64;34.06;100365.13;4475387;32;33410;-77
2021/12/23 08:15:58;;;;;;;;;;;;;;;7.47;34.34;100360.69;4468279;32;34049;-78
2021/12/23 08:18:25;;;;;;;;;;;;;;;7.12;34.56;100358.03;4475045;32;33966;-76
2021/12/23 08:20:52;;;;;;;;;;;;;;;8.05;33.33;100354.91;4466943;32;33996;-77
2021/12/23 08:23:20;;;;;;;;;;;;;;;8.01;33.60;100353.38;4466497;32;31758;-77
2021/12/23 08:25:48;;;;;;;;;;;;;;;7.05;33.35;100361.09;4471561;32;33059;-78
2021/12/23 08:28:16;;;;;;;;;;;;;;;6.16;35.17;100360.06;4471405;32;34153;-76
2021/12/23 08:30:43;;;;;;;;;;;;;;;6.21;35.61;100350.09;4474201;32;33902;-77
2021/12/23 08:33:11;;;;;;;;;;;;;;;4.03;38.26;100351.38;4471115;32;33300;-77
2021/12/23 08:35:38;;;;;;;;;;;;;;;6.26;35.80;100350.72;4478700;32;32461;-76
2021/12/23 08:38:06;;;;;;;;;;;;;;;6.04;35.83;100345.59;4468117;32;34234;-77
2021/12/23 08:40:33;;;;;;;;;;;;;;;5.96;36.17;100351.22;4473072;32;33592;-76
2021/12/23 08:43:02;;;;;;;;;;;;;;;5.83;35.87;100348.25;4477949;32;34055;-78
2021/12/23 08:45:30;;;;;;;;;;;;;;;6.96;34.41;100343.78;4470752;32;35092;-77
2021/12/23 08:47:58;;;;;;;;;;;;;;;6.56;33.86;100353.75;4471798;32;34074;-78
2021/12/23 08:50:26;;;;;;;;;;;;;;;5.99;34.93;100355.56;4481837;32;35077;-75
2021/12/23 08:52:54;;;;;;;;;;;;;;;7.53;33.16;100357.72;4476578;32;33731;-75
2021/12/23 08:55:21;;;;;;;;;;;;;;;7.78;32.46;100343.09;4471160;32;34275;-76
2021/12/23 08:57:48;;;;;;;;;;;;;;;7.72;32.47;100335.44;4482007;32;34375;-76
2021/12/23 09:00:16;;;;;;;;;;;;;;;7.61;32.59;100341.34;4475376;32;34181;-75
2021/12/23 09:02:46;;;;;;;;;;;;;;;7.58;33.37;100347.69;4467714;32;34440;-76
2021/12/23 09:05:13;;;;;;;;;;;;;;;7.82;32.13;100344.66;4467634;32;33906;-76
2021/12/23 09:07:41;;;;;;;;;;;;;;;8.66;30.69;100336.47;4478354;32;34006;-75
2021/12/23 09:10:08;;;;;;;;;;;;;;;8.97;30.60;100324.87;4477344;32;34046;-77
2021/12/23 09:12:36;;;;;;;;;;;;;;;8.63;31.45;100317.03;4485255;32;33497;-76
2021/12/23 09:15:04;;;;;;;;;;;;;;;8.65;29.50;100324.94;4480494;32;33894;-78
2021/12/23 09:17:31;;;;;;;;;;;;;;;7.46;32.96;100319.03;4482746;32;33005;-75
2021/12/23 09:19:59;;;;;;;;;;;;;;;9.20;30.81;100318.16;4481652;32;34284;-77
2021/12/23 09:22:26;;;;;;;;;;;;;;;8.05;29.95;100322.06;4480722;32;33031;-76
2021/12/23 09:24:57;;;;;;;;;;;;;;;8.47;31.00;100300.16;4483231;32;34214;-76
2021/12/23 09:27:36;;;;;;;;;;;;;;;8.28;29.70;100297.66;4484645;32;34180;-77
2021/12/23 09:32:53;;;;;;;;;;;;;;;7.05;30.61;100302.53;4442611;32;913269;-75
2021/12/23 09:35:40;;;;;;;;;;;;;;;7.57;30.66;100290.00;4473035;32;33624;-76
2021/12/23 09:38:08;;;;;;;;;;;;;;;7.56;30.82;100282.09;4468565;32;33050;-75
2021/12/23 09:40:36;;;;;;;;;;;;;;;7.28;30.68;100280.87;4467226;32;33201;-76
2021/12/23 09:43:07;;;;;;;;;;;;;;;6.70;31.42;100287.41;4472998;32;34350;-75
2021/12/23 09:45:35;;;;;;;;;;;;;;;8.04;29.86;100275.88;4483841;32;32457;-76
2021/12/23 09:48:03;;;;;;;;;;;;;;;8.11;30.39;100276.41;4481005;32;34107;-75
2021/12/23 09:50:33;;;;;;;;;;;;;;;8.53;28.84;100267.78;4474662;32;33040;-76
2021/12/23 09:53:01;;;;;;;;;;;;;;;7.73;30.36;100274.03;4468982;32;33932;-79
2021/12/23 09:55:30;;;;;;;;;;;;;;;8.95;28.15;100276.88;4475712;32;34158;-76
2021/12/23 09:57:59;;;;;;;;;;;;;;;7.64;29.13;100290.53;4483418;32;35373;-75
2021/12/23 10:00:29;;;;;;;;;;;;;;;7.79;29.38;100284.37;4473172;32;32472;-75
2021/12/23 10:02:57;;;;;;;;;;;;;;;8.44;28.46;100268.31;4468176;32;32394;-75
2021/12/23 10:05:29;;;;;;;;;;;;;;;8.90;27.53;100251.44;4480717;32;34325;-76
2021/12/23 10:07:56;;;;;;;;;;;;;;;8.70;28.55;100249.91;4467811;32;35430;-75
2021/12/23 10:10:51;;;;;;;;;;;;;;;8.70;29.11;100247.25;4472062;32;34101;-78
2021/12/23 10:27:14;;;;;;;;;;;;;;;8.15;30.16;100228.16;4467549;32;34508;-73
2021/12/23 10:32:48;;;;;;;;;;;;;;;9.02;30.39;100218.62;4472804;32;34311;-74
2021/12/23 10:38:08;;;;;;;;;;;;;;;6.37;31.05;100202.22;4476087;32;32866;-76
2021/12/23 10:40:37;;;;;;;;;;;;;;;7.34;29.55;100191.84;4466613;32;34079;-76
2021/12/23 10:43:06;;;;;;;;;;;;;;;8.63;28.58;100185.38;4457564;32;34034;-79
2021/12/23 10:45:41;;;;;;;;;;;;;;;7.42;29.61;100187.81;4468832;32;33801;-76
2021/12/23 10:48:11;;;;;;;;;;;;;;;8.57;28.23;100169.75;4466391;32;35181;-80
2021/12/23 10:50:46;;;;;;;;;;;;;;;6.52;31.91;100166.00;4466218;32;34676;-76
2021/12/23 10:53:37;;;;;;;;;;;;;;;5.13;33.55;100169.13;4464954;32;32974;-77
2021/12/23 10:59:02;;;;;;;;;;;;;;;5.67;32.88;100158.66;4466727;32;33849;-78
2021/12/23 11:01:30;;;;;;;;;;;;;;;5.87;32.44;100155.03;4476032;32;32741;-74
2021/12/23 11:04:02;;;;;;;;;;;;;;;6.62;31.68;100161.94;4455691;32;33299;-74
2021/12/23 11:06:39;;;;;;;;;;;;;;;7.62;30.05;100144.09;4468597;32;30563;-73
2021/12/23 11:38:48;;;;;;;;;;;;;;;4.75;34.48;100070.09;4474090;32;33544;-74
2021/12/23 11:41:32;;;;;;;;;;;;;;;3.67;36.29;100070.38;4467649;32;34198;-74
2021/12/23 11:44:01;;;;;;;;;;;;;;;4.19;35.99;100065.50;4469994;32;34726;-72
2021/12/23 11:46:36;;;;;;;;;;;;;;;6.23;32.51;100061.16;4471913;32;33865;-73
2021/12/23 11:49:07;;;;;;;;;;;;;;;5.27;33.27;100048.22;4469062;32;32500;-73
2021/12/23 11:54:11;;;;;;;;;;;;;;;5.04;33.58;100049.28;4473241;32;34229;-78
2021/12/23 11:56:40;;;;;;;;;;;;;;;4.47;34.30;100053.72;4476666;32;34718;-80
2021/12/23 11:59:09;;;;;;;;;;;;;;;4.69;33.96;100041.22;4458578;32;32360;-78
2021/12/23 12:01:44;;;;;;;;;;;;;;;4.97;34.59;100042.56;4471620;32;34368;-78
2021/12/23 12:04:15;;;;;;;;;;;;;;;3.58;35.34;100034.53;4456215;32;35755;-77
2021/12/23 12:06:45;;;;;;;;;;;;;;;4.97;33.66;100029.28;4475813;32;32874;-75
2021/12/23 12:09:14;;;;;;;;;;;;;;;4.92;35.13;100023.37;4467929;32;33602;-76
2021/12/23 12:11:46;;;;;;;;;;;;;;;5.59;32.66;100018.28;4467809;32;34106;-76
2021/12/23 12:14:34;;;;;;;;;;;;;;;4.35;34.31;100018.84;4466931;32;34280;-72
2021/12/23 12:17:20;;;;;;;;;;;;;;;4.89;35.02;100017.25;4468160;32;34734;-74
2021/12/23 12:20:00;;;;;;;;;;;;;;;5.50;33.27;100007.28;4467896;32;32134;-72
2021/12/23 12:22:46;;;;;;;;;;;;;;;4.29;33.93;99994.44;4470922;32;32973;-78
2021/12/23 12:25:23;;;;;;;;;;;;;;;5.24;32.67;99998.78;4473007;32;33877;-74
2021/12/23 12:27:57;;;;;;;;;;;;;;;5.08;33.94;99998.69;4479770;32;33643;-74
2021/12/23 12:30:34;;;;;;;;;;;;;;;4.36;33.17;99995.88;4473724;32;33415;-79
2021/12/23 12:33:05;;;;;;;;;;;;;;;4.90;32.98;99984.50;4467761;32;33759;-78
2021/12/23 12:35:33;;;;;;;;;;;;;;;3.64;34.58;99991.94;4475853;32;32160;-73
2021/12/23 12:38:17;;;;;;;;;;;;;;;3.57;35.25;99992.28;4472543;32;32947;-75
2021/12/23 12:41:24;;;;;;;;;;;;;;;5.08;34.28;99993.37;4471754;32;31577;-74
2021/12/23 12:44:04;;;;;;;;;;;;;;;5.27;32.41;99988.03;4410357;32;34412;-77
2021/12/23 12:46:45;;;;;;;;;;;;;;;6.18;31.06;99991.44;4423406;32;33993;-77
2021/12/23 12:49:21;;;;;;;;;;;;;;;6.27;31.57;99990.94;4455201;32;35660;-80
2021/12/23 12:51:49;;;;;;;;;;;;;;;4.61;32.59;99985.00;4472264;32;33945;-76
2021/12/23 12:54:32;;;;;;;;;;;;;;;4.81;33.27;99974.31;4469883;32;34315;-78
2021/12/23 12:57:02;;;;;;;;;;;;;;;5.89;31.56;99969.00;4472469;32;34057;-76
2021/12/23 12:59:30;;;;;;;;;;;;;;;5.64;31.36;99962.28;4459351;32;35223;-81
2021/12/23 13:01:58;;;;;;;;;;;;;;;6.16;31.22;99951.62;4449127;32;33468;-79
2021/12/23 13:04:31;;;;;;;;;;;;;;;5.48;31.66;99940.97;4471678;32;33582;-81
2021/12/23 13:07:03;;;;;;;;;;;;;;;6.13;30.54;99941.19;4469885;32;34224;-78
2021/12/23 13:09:36;;;;;;;;;;;;;;;6.28;30.16;99944.81;4474521;32;34500;-78
2021/12/23 13:12:06;;;;;;;;;;;;;;;4.96;32.58;99940.03;4468632;32;33296;-82
2021/12/23 13:15:16;;;;;;;;;;;;;;;5.21;32.43;99929.09;4459530;32;34158;-79
2021/12/23 13:17:57;;;;;;;;;;;;;;;5.38;32.19;99929.94;4456277;32;34119;-80
2021/12/23 13:20:32;;;;;;;;;;;;;;;6.32;31.72;99918.91;4467130;32;32471;-78
2021/12/23 13:23:01;;;;;;;;;;;;;;;4.99;33.73;99924.84;4467679;32;32233;-78
2021/12/23 13:25:29;;;;;;;;;;;;;;;4.57;32.88;99920.66;4469311;32;35005;-77
2021/12/23 13:27:59;;;;;;;;;;;;;;;4.85;32.92;99924.66;4467202;32;34336;-78
2021/12/23 13:30:28;;;;;;;;;;;;;;;6.02;33.57;99917.81;4468155;32;35715;-80
2021/12/23 13:32:57;;;;;;;;;;;;;;;4.19;33.29;99917.16;4478720;32;32109;-74
2021/12/23 13:35:25;;;;;;;;;;;;;;;4.14;33.35;99922.66;4469033;32;33240;-79
2021/12/23 13:37:52;;;;;;;;;;;;;;;4.06;33.84;99916.00;4456903;32;34371;-77
2021/12/23 13:40:30;;;;;;;;;;;;;;;4.23;33.98;99908.13;4469631;32;34301;-78
2021/12/23 13:42:58;;;;;;;;;;;;;;;3.61;34.56;99895.94;4480588;32;33452;-78
2021/12/23 13:45:25;;;;;;;;;;;;;;;5.19;32.73;99888.50;4473069;32;33886;-76
2021/12/23 13:47:54;;;;;;;;;;;;;;;4.36;33.44;99893.38;4472347;32;35147;-81
2021/12/23 13:50:22;;;;;;;;;;;;;;;5.80;33.66;99903.94;4482415;32;34190;-79
2021/12/23 13:52:50;;;;;;;;;;;;;;;5.95;32.27;99900.50;4478375;32;33091;-79
2021/12/23 13:55:22;;;;;;;;;;;;;;;6.65;30.17;99890.47;4454826;32;32742;-78
2021/12/23 13:57:56;;;;;;;;;;;;;;;6.75;29.87;99883.69;4471212;32;33305;-78
2021/12/23 14:00:30;;;;;;;;;;;;;;;6.91;29.83;99874.81;4473588;32;35143;-77
2021/12/23 14:03:08;;;;;;;;;;;;;;;4.76;32.98;99874.72;4483326;32;33627;-77
2021/12/23 14:05:40;;;;;;;;;;;;;;;4.99;32.22;99869.13;4470379;32;32928;-76